createdAt,value
2022-09-13T00:04:48.839Z,19.00
2022-09-13T00:09:51.607Z,19.01
2022-09-13T00:14:55.616Z,18.92
2022-09-13T00:19:58.326Z,18.52
2022-09-13T00:25:01.734Z,18.93
2022-09-13T00:30:07.205Z,18.93
2022-09-13T00:35:10.708Z,18.98
2022-09-13T00:40:13.460Z,18.45
2022-09-13T00:45:18.611Z,18.88
2022-09-13T00:50:24.732Z,18.66
2022-09-13T00:55:30.792Z,18.62
2022-09-13T01:00:34.797Z,18.86
2022-09-13T01:05:40.158Z,17.97
2022-09-13T01:10:43.322Z,18.71
2022-09-13T01:15:47.789Z,18.80
2022-09-13T01:21:24.015Z,16.32
2022-09-13T01:27:00.366Z,18.50
2022-09-13T01:32:15.661Z,18.73
2022-09-13T01:37:42.209Z,18.79
2022-09-13T01:42:59.638Z,18.07
2022-09-13T01:48:16.329Z,18.89
2022-09-13T01:53:26.772Z,18.71
2022-09-13T01:58:37.395Z,18.69
2022-09-13T02:03:46.854Z,18.89
2022-09-13T02:08:52.445Z,18.43
2022-09-13T02:13:59.626Z,18.77
2022-09-13T02:19:10.720Z,18.86
2022-09-13T02:24:17.464Z,18.90
2022-09-13T02:29:23.172Z,18.92
2022-09-13T02:34:34.264Z,18.91
2022-09-13T02:39:45.242Z,18.90
2022-09-13T02:44:52.723Z,18.35
2022-09-13T02:50:09.071Z,18.59
2022-09-13T02:55:21.089Z,18.89
2022-09-13T03:00:24.121Z,18.92
2022-09-13T03:05:28.576Z,18.92
2022-09-13T03:10:41.637Z,18.93
2022-09-13T03:15:56.768Z,18.94
2022-09-13T03:21:08.455Z,18.94
2022-09-13T03:26:26.754Z,18.68
2022-09-13T03:31:34.840Z,18.46
2022-09-13T03:36:48.975Z,18.40
2022-09-13T03:41:58.212Z,18.71
2022-09-13T03:47:05.056Z,18.76
2022-09-13T03:52:09.543Z,19.00
2022-09-13T03:57:15.155Z,18.41
2022-09-13T04:02:19.558Z,18.77
2022-09-13T04:07:25.765Z,18.78
2022-09-13T04:12:33.254Z,18.82
2022-09-13T04:17:36.330Z,18.80
2022-09-13T04:22:42.150Z,18.51
2022-09-13T04:27:45.057Z,18.75
2022-09-13T04:32:47.673Z,18.41
2022-09-13T04:37:51.615Z,18.67
2022-09-13T04:42:54.251Z,18.75
2022-09-13T04:47:57.462Z,18.78
2022-09-13T04:53:02.814Z,18.70
2022-09-13T04:58:05.745Z,18.73
2022-09-13T05:03:08.377Z,18.71
2022-09-13T05:08:13.185Z,18.26
2022-09-13T05:13:15.868Z,18.68
2022-09-13T05:18:18.578Z,18.59
2022-09-13T05:23:24.449Z,18.56
2022-09-13T05:28:29.260Z,18.65
2022-09-13T05:33:34.419Z,18.62
2022-09-13T05:38:38.488Z,18.66
2022-09-13T05:43:41.242Z,18.72
2022-09-13T05:48:44.545Z,18.73
2022-09-13T05:53:50.085Z,18.74
2022-09-13T05:58:54.371Z,18.72
2022-09-13T06:03:59.042Z,18.80
2022-09-13T06:09:03.406Z,18.77
2022-09-13T06:14:06.214Z,18.91
2022-09-13T06:19:09.141Z,18.32
2022-09-13T06:24:14.776Z,18.47
2022-09-13T06:29:17.736Z,18.45
2022-09-13T06:34:22.836Z,18.52
2022-09-13T06:39:27.685Z,19.04
2022-09-13T06:44:31.026Z,19.13
2022-09-13T06:49:33.685Z,19.17
2022-09-13T06:54:37.661Z,19.29
2022-09-13T06:59:40.327Z,19.32
2022-09-13T07:04:43.101Z,19.05
2022-09-13T07:09:47.649Z,19.30
2022-09-13T07:14:50.449Z,19.53
2022-09-13T07:19:53.233Z,19.52
2022-09-13T07:24:57.628Z,19.62
2022-09-13T07:30:01.881Z,19.66
2022-09-13T07:35:06.735Z,19.66
2022-09-13T07:40:12.493Z,19.85
2022-09-13T07:45:15.722Z,19.20
2022-09-13T07:50:26.012Z,19.68
2022-09-13T07:55:31.736Z,20.15
2022-09-13T08:00:34.960Z,20.16
2022-09-13T08:05:44.335Z,20.13
2022-09-13T08:10:53.020Z,18.91
2022-09-13T08:15:56.662Z,19.46
2022-09-13T08:21:02.862Z,18.22
2022-09-13T08:26:08.549Z,19.45
2022-09-13T08:31:13.896Z,20.68
2022-09-13T08:36:18.112Z,20.57
2022-09-13T08:41:45.359Z,20.00
2022-09-13T08:46:49.001Z,20.83
2022-09-13T08:51:54.815Z,20.76
2022-09-13T08:57:08.574Z,20.00
2022-09-13T09:02:23.800Z,21.07
2022-09-13T09:07:30.853Z,21.14
2022-09-13T09:12:41.075Z,21.23
2022-09-13T09:17:52.975Z,21.26
2022-09-13T09:22:56.706Z,21.35
2022-09-13T09:28:00.925Z,20.45
2022-09-13T09:33:17.459Z,21.64
2022-09-13T09:38:41.112Z,21.07
2022-09-13T09:43:52.508Z,21.81
2022-09-13T09:49:25.826Z,20.53
2022-09-13T09:54:30.985Z,21.64
2022-09-13T09:59:37.217Z,21.14
2022-09-13T10:04:41.314Z,21.89
2022-09-13T10:09:58.317Z,22.28
2022-09-13T10:15:19.357Z,22.33
2022-09-13T10:20:23.399Z,21.52
2022-09-13T10:25:28.582Z,22.48
2022-09-13T10:30:37.946Z,21.41
2022-09-13T10:35:40.981Z,21.29
2022-09-13T10:40:49.101Z,22.53
2022-09-13T10:45:53.481Z,22.65
2022-09-13T10:51:05.445Z,22.77
2022-09-13T10:56:21.348Z,22.89
2022-09-13T11:01:45.277Z,23.02
2022-09-13T11:07:02.093Z,23.06
2022-09-13T11:12:12.011Z,23.23
2022-09-13T11:17:25.793Z,23.21
2022-09-13T11:22:44.296Z,23.03
2022-09-13T11:27:56.936Z,23.77
2022-09-13T11:33:25.447Z,23.65
2022-09-13T11:38:37.417Z,23.96
2022-09-13T11:44:01.469Z,24.17
2022-09-13T11:49:34.011Z,24.40
2022-09-13T11:54:50.064Z,24.19
2022-09-13T11:59:58.063Z,24.67
2022-09-13T12:05:22.028Z,24.34
2022-09-13T12:10:30.629Z,24.92
2022-09-13T12:15:39.818Z,25.09
2022-09-13T12:20:49.804Z,25.26
2022-09-13T12:25:58.591Z,25.29
2022-09-13T12:31:05.502Z,25.27
2022-09-13T12:36:43.042Z,25.20
2022-09-13T12:41:58.644Z,24.48
2022-09-13T12:47:25.884Z,24.94
2022-09-13T12:52:37.702Z,24.77
2022-09-13T12:57:48.465Z,24.91
2022-09-13T13:03:05.416Z,24.90
2022-09-13T13:08:27.552Z,25.05
2022-09-13T13:13:37.325Z,25.36
2022-09-13T13:18:48.534Z,25.87
2022-09-13T13:24:24.535Z,26.27
2022-09-13T13:29:29.872Z,26.33
2022-09-13T13:34:40.216Z,26.51
2022-09-13T13:39:44.122Z,26.46
2022-09-13T13:45:17.679Z,26.30
2022-09-13T13:50:20.944Z,25.98
2022-09-13T13:55:43.010Z,26.13
2022-09-13T14:00:52.055Z,26.02
2022-09-13T14:06:01.664Z,25.99
2022-09-13T14:11:15.830Z,25.81
2022-09-13T14:16:36.856Z,25.67
2022-09-13T14:21:40.100Z,25.49
2022-09-13T14:26:43.182Z,25.42
2022-09-13T14:31:51.119Z,25.28
2022-09-13T14:37:00.496Z,25.01
2022-09-13T14:42:13.179Z,24.72
2022-09-13T14:47:24.081Z,25.04
2022-09-13T14:52:31.329Z,24.95
2022-09-13T14:57:40.134Z,23.14
2022-09-13T15:02:49.699Z,23.49
2022-09-13T15:07:52.811Z,24.35
2022-09-13T15:13:03.382Z,24.35
2022-09-13T15:18:24.990Z,23.60
2022-09-13T15:23:30.060Z,24.55
2022-09-13T15:28:35.560Z,24.31
2022-09-13T15:33:39.546Z,24.28
2022-09-13T15:39:01.853Z,24.25
2022-09-13T15:44:06.753Z,23.99
2022-09-13T15:49:16.932Z,23.58
2022-09-13T15:54:19.912Z,23.90
2022-09-13T15:59:23.370Z,23.75
2022-09-13T16:04:27.529Z,23.95
2022-09-13T16:09:30.310Z,23.84
2022-09-13T16:14:35.375Z,23.66
2022-09-13T16:19:39.635Z,23.89
2022-09-13T16:24:42.298Z,23.81
2022-09-13T16:29:45.355Z,23.78
2022-09-13T16:34:49.445Z,23.74
2022-09-13T16:39:52.308Z,23.67
2022-09-13T16:44:56.113Z,23.22
2022-09-13T16:50:00.383Z,23.61
2022-09-13T16:55:04.012Z,23.57
2022-09-13T17:00:10.556Z,23.43
2022-09-13T17:05:14.639Z,23.41
2022-09-13T17:10:19.497Z,23.05
2022-09-13T17:15:28.426Z,23.27
2022-09-13T17:20:32.538Z,23.22
2022-09-13T17:25:40.160Z,22.42
2022-09-13T17:30:46.058Z,23.04
2022-09-13T17:35:59.332Z,23.07
2022-09-13T17:41:03.576Z,23.06
2022-09-13T17:46:06.969Z,22.87
2022-09-13T17:51:15.650Z,22.63
2022-09-13T17:56:20.747Z,22.57
2022-09-13T18:01:28.199Z,22.64
2022-09-13T18:06:32.410Z,22.61
2022-09-13T18:11:35.958Z,22.82
2022-09-13T18:16:55.706Z,22.11
2022-09-13T18:22:01.520Z,22.58
2022-09-13T18:27:04.909Z,22.63
2022-09-13T18:32:07.819Z,22.56
2022-09-13T18:37:14.427Z,22.29
2022-09-13T18:42:17.246Z,22.44
2022-09-13T18:47:22.097Z,22.12
2022-09-13T18:52:28.620Z,21.05
2022-09-13T18:57:33.541Z,22.25
2022-09-13T19:02:47.871Z,21.17
2022-09-13T19:08:02.629Z,22.15
2022-09-13T19:13:06.018Z,22.10
2022-09-13T19:18:08.955Z,21.98
2022-09-13T19:23:17.207Z,21.91
2022-09-13T19:28:19.976Z,21.44
2022-09-13T19:33:22.736Z,20.94
2022-09-13T19:38:39.676Z,19.54
2022-09-13T19:43:44.457Z,21.72
2022-09-13T19:48:49.136Z,20.47
2022-09-13T19:53:57.573Z,21.33
2022-09-13T19:59:01.382Z,21.56
2022-09-13T20:04:05.957Z,21.31
2022-09-13T20:09:11.601Z,21.39
2022-09-13T20:14:17.121Z,20.19
2022-09-13T20:19:40.157Z,21.33
2022-09-13T20:24:45.115Z,19.88
2022-09-13T20:29:47.831Z,20.73
2022-09-13T20:34:51.063Z,19.85
2022-09-13T20:39:55.796Z,19.68
2022-09-13T20:44:58.468Z,21.03
2022-09-13T20:50:01.220Z,19.42
2022-09-13T20:55:05.892Z,19.58
2022-09-13T21:00:10.365Z,19.84
2022-09-13T21:05:13.472Z,20.80
2022-09-13T21:10:17.719Z,20.79
2022-09-13T21:15:24.174Z,19.59
2022-09-13T21:20:29.226Z,20.71
2022-09-13T21:25:36.746Z,20.71
2022-09-13T21:30:40.599Z,20.66
2022-09-13T21:35:43.287Z,20.19
2022-09-13T21:40:56.428Z,20.61
2022-09-13T21:46:00.500Z,20.48
2022-09-13T21:51:05.908Z,19.83
2022-09-13T21:56:11.697Z,20.23
2022-09-13T22:01:25.359Z,20.43
2022-09-13T22:06:33.689Z,20.38
2022-09-13T22:11:39.854Z,20.08
2022-09-13T22:17:09.625Z,20.29
2022-09-13T22:22:12.424Z,20.30
2022-09-13T22:27:16.412Z,20.06
2022-09-13T22:32:23.045Z,20.06
2022-09-13T22:37:26.289Z,20.08
2022-09-13T22:42:30.290Z,18.98
2022-09-13T22:47:32.978Z,19.71
2022-09-13T22:52:36.205Z,18.94
2022-09-13T22:57:42.552Z,19.98
2022-09-13T23:02:47.243Z,19.93
2022-09-13T23:07:50.014Z,19.80
2022-09-13T23:12:54.707Z,17.56
2022-09-13T23:17:57.445Z,19.71
2022-09-13T23:23:00.113Z,19.66
2022-09-13T23:28:04.682Z,18.47
2022-09-13T23:33:14.706Z,19.11
2022-09-13T23:38:17.696Z,18.22
2022-09-13T23:43:21.740Z,19.44
2022-09-13T23:48:25.388Z,19.43
2022-09-13T23:53:28.823Z,19.36
2022-09-13T23:58:33.064Z,19.35
